createdAt,value
2016-03-19T00:00:40.642Z,74.81
2016-03-19T00:01:40.629Z,74.81
2016-03-19T00:02:40.616Z,74.81
2016-03-19T00:03:40.634Z,74.52
2016-03-19T00:04:40.622Z,74.81
2016-03-19T00:05:40.608Z,74.81
2016-03-19T00:06:40.627Z,74.71
2016-03-19T00:07:40.597Z,74.81
2016-03-19T00:08:40.585Z,74.94
2016-03-19T00:09:40.572Z,74.47
2016-03-19T00:10:40.591Z,74.47
2016-03-19T00:11:40.561Z,74.66
2016-03-19T00:12:40.564Z,74.18
2016-03-19T00:13:40.552Z,74.56
2016-03-19T00:14:40.554Z,73.61
2016-03-19T00:15:40.557Z,74.18
2016-03-19T00:16:40.529Z,74.15
2016-03-19T00:17:40.515Z,74.43
2016-03-19T00:18:40.519Z,74.43
2016-03-19T00:19:40.521Z,74.81
2016-03-19T00:20:40.508Z,74.52
2016-03-19T00:21:40.495Z,74.62
2016-03-19T00:22:40.482Z,74.71
2016-03-19T00:23:40.485Z,74.62
2016-03-19T00:24:40.472Z,74.62
2016-03-19T00:25:40.490Z,74.43
2016-03-19T00:26:40.477Z,74.9
2016-03-19T00:27:40.465Z,74.9
2016-03-19T00:28:40.451Z,74.71
2016-03-19T00:29:40.454Z,74.71
2016-03-19T00:30:40.442Z,75.38
2016-03-19T00:31:40.429Z,75.28
2016-03-19T00:32:40.447Z,75.47
2016-03-19T00:33:40.418Z,75.47
2016-03-19T00:34:40.406Z,75.38
2016-03-19T00:35:40.392Z,75.19
2016-03-19T00:36:40.395Z,75.57
2016-03-19T00:37:40.381Z,75.67
2016-03-19T00:38:40.370Z,75.76
2016-03-19T00:39:40.372Z,75.95
2016-03-19T00:40:40.390Z,76.14
2016-03-19T00:41:40.361Z,76.23
2016-03-19T00:42:40.333Z,76.23
2016-03-19T00:43:40.351Z,76.23
2016-03-19T00:44:40.323Z,75.95
2016-03-19T00:45:40.326Z,76.52
2016-03-19T00:46:40.531Z,76.52
2016-03-19T00:47:40.909Z,76.32
2016-03-19T00:48:40.302Z,76.32
2016-03-19T00:49:40.305Z,76.23
2016-03-19T00:50:40.949Z,76.32
2016-03-19T00:51:41.061Z,76.32
2016-03-19T00:52:40.860Z,76.23
2016-03-19T00:53:40.269Z,76.71
2016-03-19T00:54:40.272Z,76.9
2016-03-19T00:55:40.509Z,76.71
2016-03-19T00:56:40.246Z,77.18
2016-03-19T00:57:40.233Z,76.9
2016-03-19T00:58:40.220Z,77.28
2016-03-19T00:59:41.332Z,77.84
2016-03-19T01:01:40.337Z,77.84
2016-03-19T01:02:40.762Z,77.94
2016-03-19T01:03:40.780Z,77.94
2016-03-19T01:04:40.190Z,77.94
2016-03-19T01:05:40.176Z,77.94
2016-03-19T01:06:40.164Z,77.84
2016-03-19T01:07:40.167Z,77.56
2016-03-19T01:08:40.160Z,77.94
2016-03-19T01:09:40.137Z,77.94
2016-03-19T01:10:40.115Z,78.03
2016-03-19T01:11:39.374Z,77.84
2016-03-19T01:12:40.086Z,78.03
2016-03-19T01:13:40.084Z,78.23
2016-03-19T01:14:40.067Z,77.75
2016-03-19T01:15:40.051Z,77.66
2016-03-19T01:16:40.035Z,77.75
2016-03-19T01:17:40.034Z,77.7
2016-03-19T01:18:40.035Z,77.79
2016-03-19T01:19:40.021Z,77.6
2016-03-19T01:20:40.007Z,77.75
2016-03-19T01:21:40.009Z,77.37
2016-03-19T01:22:39.995Z,77.37
2016-03-19T01:23:39.981Z,77.6
2016-03-19T01:24:39.983Z,77.41
2016-03-19T01:25:39.971Z,77.56
2016-03-19T01:26:39.957Z,77.6
2016-03-19T01:27:39.959Z,77.56
2016-03-19T01:28:39.946Z,77.47
2016-03-19T01:29:39.934Z,77.56
2016-03-19T01:30:39.921Z,77.37
2016-03-19T01:31:39.923Z,77.56
2016-03-19T01:32:39.910Z,77.47
2016-03-19T01:33:39.913Z,77.37
2016-03-19T01:34:39.884Z,77.94
2016-03-19T01:35:39.903Z,77.56
2016-03-19T01:36:39.890Z,77.51
2016-03-19T01:37:39.877Z,77.56
2016-03-19T01:38:39.864Z,77.66
2016-03-19T01:39:39.866Z,77.66
2016-03-19T01:40:39.853Z,77.37
2016-03-19T01:41:39.856Z,76.84
2016-03-19T01:42:39.843Z,76.93
2016-03-19T01:43:39.830Z,77.12
2016-03-19T01:44:39.832Z,76.75
2016-03-19T01:45:39.821Z,76.84
2016-03-19T01:46:39.823Z,77.12
2016-03-19T01:47:39.810Z,77.12
2016-03-19T01:48:39.813Z,76.75
2016-03-19T01:49:39.799Z,76.75
2016-03-19T01:50:39.787Z,76.37
2016-03-19T01:51:39.789Z,76.27
2016-03-19T01:52:39.777Z,76.37
2016-03-19T01:53:39.763Z,76.46
2016-03-19T01:54:39.751Z,75.99
2016-03-19T01:55:39.737Z,76.08
2016-03-19T01:56:39.740Z,76.27
2016-03-19T01:57:39.743Z,76.37
2016-03-19T01:58:39.730Z,75.7
2016-03-19T01:59:39.718Z,75.99
2016-03-19T02:00:39.720Z,75.51
2016-03-19T02:01:39.723Z,75.79
2016-03-19T02:02:39.694Z,75.51
2016-03-19T02:03:39.697Z,75.6
2016-03-19T02:04:39.684Z,75.6
2016-03-19T02:05:40.125Z,75.32
2016-03-19T02:06:39.673Z,75.51
2016-03-19T02:07:39.769Z,74.85
2016-03-19T02:08:39.726Z,74.75
2016-03-19T02:09:40.322Z,75.04
2016-03-19T02:10:40.513Z,74.85
2016-03-19T02:11:40.562Z,75.04
2016-03-19T02:12:39.643Z,74.94
2016-03-19T02:13:40.146Z,74.85
2016-03-19T02:14:39.866Z,75.42
2016-03-19T02:15:39.605Z,75.32
2016-03-19T02:16:39.591Z,75.51
2016-03-19T02:17:39.593Z,75.67
2016-03-19T02:19:40.755Z,75.76
2016-03-19T02:20:39.585Z,75.67
2016-03-19T02:21:40.307Z,75.38
2016-03-19T02:22:39.935Z,75.57
2016-03-19T02:23:39.563Z,75.57
2016-03-19T02:24:39.550Z,75.76
2016-03-19T02:25:39.553Z,75.57
2016-03-19T02:26:39.540Z,76.04
2016-03-19T02:27:39.527Z,75.76
2016-03-19T02:28:39.529Z,75.57
2016-03-19T02:29:39.516Z,76.23
2016-03-19T02:30:39.503Z,75.67
2016-03-19T02:31:39.506Z,75.85
2016-03-19T02:32:39.493Z,75.67
2016-03-19T02:33:39.481Z,75.67
2016-03-19T02:34:39.499Z,76.14
2016-03-19T02:35:39.470Z,76.42
2016-03-19T02:36:39.488Z,75.47
2016-03-19T02:37:39.475Z,76.32
2016-03-19T02:38:39.463Z,76.23
2016-03-19T02:39:39.450Z,76.23
2016-03-19T02:40:39.452Z,76.04
2016-03-19T02:41:39.439Z,76.04
2016-03-19T02:42:39.427Z,76.32
2016-03-19T02:43:39.414Z,76.52
2016-03-19T02:44:39.416Z,76.52
2016-03-19T02:45:39.403Z,76.61
2016-03-19T02:46:39.422Z,76.61
2016-03-19T02:47:39.393Z,76.61
2016-03-19T02:48:39.411Z,76.42
2016-03-19T02:49:39.383Z,76.52
2016-03-19T02:50:39.371Z,76.32
2016-03-19T02:51:39.357Z,76.32
2016-03-19T02:52:39.359Z,76.42
2016-03-19T02:53:39.346Z,76.32
2016-03-19T02:54:39.334Z,76.23
2016-03-19T02:55:39.337Z,76.23
2016-03-19T02:56:39.323Z,76.52
2016-03-19T02:57:39.326Z,76.32
2016-03-19T02:58:39.345Z,76.23
2016-03-19T02:59:39.331Z,76.8
2016-03-19T03:00:39.304Z,77.05
2016-03-19T03:01:39.306Z,77.14
2016-03-19T03:02:39.293Z,76.76
2016-03-19T03:03:39.280Z,76.8
2016-03-19T03:04:39.267Z,76.95
2016-03-19T03:05:39.270Z,76.95
2016-03-19T03:06:39.256Z,77.05
2016-03-19T03:07:39.244Z,77.24
2016-03-19T03:08:39.262Z,77.14
2016-03-19T03:09:39.233Z,77.43
2016-03-19T03:10:39.220Z,77.47
2016-03-19T03:11:39.223Z,77.33
2016-03-19T03:12:39.195Z,77.24
2016-03-19T03:13:39.213Z,77.33
2016-03-19T03:14:39.215Z,77.24
2016-03-19T03:15:39.187Z,77.62
2016-03-19T03:16:39.174Z,77.52
2016-03-19T03:17:39.193Z,77.28
2016-03-19T03:18:39.148Z,77.09
2016-03-19T03:19:39.167Z,76.99
2016-03-19T03:20:39.138Z,76.9
2016-03-19T03:21:39.140Z,76.9
2016-03-19T03:22:39.143Z,77.18
2016-03-19T03:23:39.130Z,77.09
2016-03-19T03:24:39.430Z,77.18
2016-03-19T03:25:39.776Z,76.99
2016-03-19T03:26:39.123Z,76.9
2016-03-19T03:27:39.095Z,77.18
2016-03-19T03:28:39.097Z,77.37
2016-03-19T03:29:39.600Z,76.71
2016-03-19T03:30:39.712Z,76.71
2016-03-19T03:31:39.090Z,77.05
2016-03-19T03:32:39.374Z,77.09
2016-03-19T03:33:39.064Z,77.09
2016-03-19T03:34:39.035Z,76.95
2016-03-19T03:35:39.053Z,76.99
2016-03-19T03:36:39.822Z,76.99
2016-03-19T03:38:40.046Z,76.52
2016-03-19T03:39:39.033Z,76.23
2016-03-19T03:40:39.364Z,76.42
2016-03-19T03:41:39.695Z,76.52
2016-03-19T03:42:39.167Z,76.32
2016-03-19T03:43:38.981Z,76.04
2016-03-19T03:44:38.983Z,76.04
2016-03-19T03:45:39.174Z,76.14
2016-03-19T03:46:38.974Z,76.23
2016-03-19T03:47:38.960Z,76.23
2016-03-19T03:48:38.947Z,76.14
2016-03-19T03:49:38.934Z,75.67
2016-03-19T03:50:38.938Z,75.85
2016-03-19T03:51:38.924Z,75.67
2016-03-19T03:52:38.927Z,75.76
2016-03-19T03:53:38.899Z,75.85
2016-03-19T03:54:38.917Z,75.57
2016-03-19T03:55:38.888Z,75.38
2016-03-19T03:56:38.890Z,75.57
2016-03-19T03:57:38.863Z,74.81
2016-03-19T03:58:38.865Z,74.81
2016-03-19T03:59:38.867Z,74.81
2016-03-19T04:00:38.870Z,75
2016-03-19T04:01:38.857Z,74.9
2016-03-19T04:02:38.860Z,74.9
2016-03-19T04:03:38.847Z,74.9
2016-03-19T04:04:38.835Z,75.09
2016-03-19T04:05:38.822Z,75
2016-03-19T04:06:38.824Z,75
2016-03-19T04:07:38.795Z,75.28
2016-03-19T04:08:38.798Z,75.47
2016-03-19T04:09:38.786Z,75.38
2016-03-19T04:10:38.788Z,75.57
2016-03-19T04:11:38.791Z,75.57
2016-03-19T04:12:38.777Z,75.57
2016-03-19T04:13:38.765Z,75.53
2016-03-19T04:14:38.783Z,75.72
2016-03-19T04:15:38.755Z,75.67
2016-03-19T04:16:38.758Z,75.34
2016-03-19T04:17:38.729Z,75.67
2016-03-19T04:18:38.732Z,75.34
2016-03-19T04:19:38.703Z,75.53
2016-03-19T04:20:38.722Z,75.85
2016-03-19T04:21:38.693Z,75.72
2016-03-19T04:22:38.538Z,75.62
2016-03-19T04:23:38.698Z,76.2
2016-03-19T04:24:38.685Z,76.29
2016-03-19T04:25:38.687Z,76.1
2016-03-19T04:26:38.675Z,76.01
2016-03-19T04:27:38.662Z,76.2
2016-03-19T04:28:38.649Z,76.1
2016-03-19T04:29:38.636Z,76.2
2016-03-19T04:30:38.639Z,76.01
2016-03-19T04:31:38.626Z,75.91
2016-03-19T04:32:38.628Z,75.53
2016-03-19T04:33:38.600Z,76.29
2016-03-19T04:34:38.602Z,76.1
2016-03-19T04:35:38.606Z,76.29
2016-03-19T04:36:38.592Z,76.2
2016-03-19T04:37:38.579Z,76.2
2016-03-19T04:38:38.582Z,76.1
2016-03-19T04:39:38.553Z,76.57
2016-03-19T04:40:38.572Z,76.57
2016-03-19T04:41:38.543Z,76.57
2016-03-19T04:42:38.531Z,76.29
2016-03-19T04:43:38.533Z,76.2
2016-03-19T04:45:38.522Z,76.86
2016-03-19T04:46:38.525Z,76.67
2016-03-19T04:47:40.044Z,76.67
2016-03-19T04:48:38.499Z,77.24
2016-03-19T04:49:38.737Z,76.95
2016-03-19T04:50:39.724Z,77.05
2016-03-19T04:51:38.477Z,77.14
2016-03-19T04:52:39.088Z,77.14
2016-03-19T04:53:38.451Z,77.05
2016-03-19T04:54:38.454Z,77.05
2016-03-19T04:55:52.737Z,76.86
2016-03-19T04:56:38.443Z,77.24
2016-03-19T04:57:39.524Z,77.14
2016-03-19T04:58:39.339Z,76.73
2016-03-19T04:59:38.420Z,77.2
2016-03-19T05:00:38.407Z,77.62
2016-03-19T05:01:38.410Z,77.33
2016-03-19T05:02:38.397Z,77.58
2016-03-19T05:03:38.384Z,77.58
2016-03-19T05:04:38.526Z,77.96
2016-03-19T05:05:38.374Z,77.77
2016-03-19T05:06:38.376Z,77.77
2016-03-19T05:07:38.347Z,77.96
2016-03-19T05:08:38.350Z,77.48
2016-03-19T05:09:38.322Z,77.77
2016-03-19T05:10:38.325Z,77.77
2016-03-19T05:11:38.311Z,77.77
2016-03-19T05:12:38.315Z,77.96
2016-03-19T05:13:38.286Z,77.67
2016-03-19T05:14:38.304Z,78.05
2016-03-19T05:15:38.291Z,77.58
2016-03-19T05:16:38.278Z,77.67
2016-03-19T05:17:38.280Z,77.58
2016-03-19T05:18:38.268Z,77.48
2016-03-19T05:19:38.270Z,77.39
2016-03-19T05:20:38.242Z,77.39
2016-03-19T05:21:38.244Z,77.48
2016-03-19T05:22:38.232Z,77.48
2016-03-19T05:23:38.249Z,77.58
2016-03-19T05:24:38.222Z,77.29
2016-03-19T05:25:38.193Z,77.67
2016-03-19T05:26:38.195Z,77.67
2016-03-19T05:27:38.199Z,77.58
2016-03-19T05:28:38.185Z,77.58
2016-03-19T05:29:38.173Z,77.29
2016-03-19T05:30:38.175Z,77.29
2016-03-19T05:31:38.162Z,77.48
2016-03-19T05:32:38.149Z,77.48
2016-03-19T05:33:38.136Z,77.58
2016-03-19T05:34:38.124Z,77.58
2016-03-19T05:35:38.110Z,77.48
2016-03-19T05:36:38.113Z,77.67
2016-03-19T05:37:38.115Z,77.29
2016-03-19T05:38:38.103Z,77.58
2016-03-19T05:39:38.090Z,77.77
2016-03-19T05:40:38.092Z,77.77
2016-03-19T05:41:38.080Z,77.11
2016-03-19T05:42:38.066Z,77.86
2016-03-19T05:43:38.054Z,77.86
2016-03-19T05:44:38.056Z,77.48
2016-03-19T05:45:38.044Z,77.86
2016-03-19T05:46:38.031Z,77.77
2016-03-19T05:47:38.033Z,77.48
2016-03-19T05:48:38.020Z,77.48
2016-03-19T05:49:38.007Z,77.48
2016-03-19T05:50:37.995Z,77.48
2016-03-19T05:51:37.982Z,77.86
2016-03-19T05:52:38.000Z,77.48
2016-03-19T05:53:38.002Z,77.86
2016-03-19T05:54:37.974Z,77.58
2016-03-19T05:55:37.961Z,77.58
2016-03-19T05:56:37.963Z,78.05
2016-03-19T05:57:37.857Z,77.96
2016-03-19T05:58:37.938Z,77.77
2016-03-19T05:59:37.941Z,77.96
2016-03-19T06:00:37.927Z,77.77
2016-03-19T06:01:37.914Z,77.86
2016-03-19T06:02:37.918Z,77.86
2016-03-19T06:03:39.045Z,77.96
2016-03-19T06:04:37.892Z,77.96
2016-03-19T06:05:37.878Z,78.24
2016-03-19T06:06:38.662Z,77.77
2016-03-19T06:07:39.478Z,77.86
2016-03-19T06:08:39.542Z,77.86
2016-03-19T06:09:38.906Z,77.67
2016-03-19T06:10:37.970Z,78
2016-03-19T06:11:38.238Z,77.52
2016-03-19T06:12:39.226Z,77.81
2016-03-19T06:13:38.916Z,77.33
2016-03-19T06:14:51.997Z,77.62
2016-03-19T06:15:37.796Z,76.86
2016-03-19T06:17:38.770Z,77.09
2016-03-19T06:18:37.788Z,76.71
2016-03-19T06:19:37.775Z,75.95
2016-03-19T06:20:37.778Z,76.42
2016-03-19T06:21:37.766Z,76.61
2016-03-19T06:22:37.768Z,76.23
2016-03-19T06:23:37.880Z,75.67
2016-03-19T06:24:37.741Z,75.67
2016-03-19T06:25:37.745Z,75.95
2016-03-19T06:26:37.747Z,74.71
2016-03-19T06:27:37.749Z,75.23
2016-03-19T06:28:37.721Z,74.56
2016-03-19T06:29:37.709Z,74.75
2016-03-19T06:30:37.715Z,75.04
2016-03-19T06:31:37.701Z,74.08
2016-03-19T06:32:37.688Z,74.05
2016-03-19T06:33:37.707Z,73.52
2016-03-19T06:34:37.678Z,73.96
2016-03-19T06:35:37.696Z,73.96
2016-03-19T06:36:37.684Z,73.76
2016-03-19T06:37:37.670Z,73.76
2016-03-19T06:38:37.673Z,73.38
2016-03-19T06:39:37.659Z,73.67
2016-03-19T06:40:37.663Z,74.43
2016-03-19T06:41:37.665Z,74.43
2016-03-19T06:42:37.715Z,74.05
2016-03-19T06:43:37.640Z,73.86
2016-03-19T06:44:37.627Z,73.86
2016-03-19T06:45:37.630Z,73.48
2016-03-19T06:46:37.632Z,73.38
2016-03-19T06:47:37.620Z,73.29
2016-03-19T06:48:37.622Z,73.48
2016-03-19T06:49:37.609Z,73.29
2016-03-19T06:50:37.611Z,73.23
2016-03-19T06:51:37.599Z,73.04
2016-03-19T06:52:37.836Z,72.75
2016-03-19T06:53:37.588Z,72.95
2016-03-19T06:54:37.575Z,72.19
2016-03-19T06:55:37.578Z,72.19
2016-03-19T06:56:37.565Z,72.28
2016-03-19T06:57:37.583Z,71.52
2016-03-19T06:58:37.555Z,71.56
2016-03-19T06:59:37.558Z,72.03
2016-03-19T07:00:37.545Z,71.75
2016-03-19T07:01:37.548Z,70.89
2016-03-19T07:02:37.393Z,70.93
2016-03-19T07:03:37.554Z,70.54
2016-03-19T07:04:37.540Z,70.26
2016-03-19T07:05:37.527Z,70.17
2016-03-19T07:06:37.530Z,69.6
2016-03-19T07:07:37.517Z,69.21
2016-03-19T07:08:37.520Z,69.31
2016-03-19T07:09:37.507Z,68.49
2016-03-19T07:10:37.509Z,68.59
2016-03-19T07:11:37.496Z,68.11
2016-03-19T07:12:37.498Z,67.82
2016-03-19T07:13:37.486Z,67.54
2016-03-19T07:14:37.489Z,67.07
2016-03-19T07:15:37.491Z,66.59
2016-03-19T07:16:37.479Z,66.39
2016-03-19T07:17:37.481Z,66.39
2016-03-19T07:18:37.469Z,65.45
2016-03-19T07:19:37.471Z,65.73
2016-03-19T07:20:37.302Z,65.16
2016-03-19T07:21:37.242Z,65.06
2016-03-19T07:23:37.482Z,65.35
2016-03-19T07:24:37.453Z,64.81
2016-03-19T07:25:38.269Z,64.05
2016-03-19T07:27:37.555Z,64.15
2016-03-19T07:28:37.433Z,63.2
2016-03-19T07:29:37.764Z,63.13
2016-03-19T07:30:37.438Z,62.46
2016-03-19T07:31:37.441Z,62.3
2016-03-19T07:32:37.428Z,61.73
2016-03-19T07:33:51.884Z,61.35
2016-03-19T07:34:37.449Z,61.29
2016-03-19T07:35:38.233Z,60.14
2016-03-19T07:36:39.142Z,58.81
2016-03-19T07:37:37.535Z,58.3
2016-03-19T07:38:38.476Z,58.3
2016-03-19T07:39:37.431Z,58.97
2016-03-19T07:40:37.434Z,59.06
2016-03-19T07:41:37.436Z,58.78
2016-03-19T07:42:37.455Z,58.69
2016-03-19T07:43:37.426Z,58.14
2016-03-19T07:44:37.445Z,58.04
2016-03-19T07:45:37.447Z,57.89
2016-03-19T07:46:37.434Z,57.6
2016-03-19T07:47:37.437Z,57.03
2016-03-19T07:48:37.439Z,56.55
2016-03-19T07:49:37.458Z,56.29
2016-03-19T07:50:37.445Z,55.91
2016-03-19T07:51:37.448Z,55.53
2016-03-19T07:52:37.450Z,55.62
2016-03-19T07:53:37.453Z,55.53
2016-03-19T07:54:37.455Z,54.57
2016-03-19T07:55:37.458Z,54.55
2016-03-19T07:56:37.460Z,54.93
2016-03-19T07:57:37.448Z,55.02
2016-03-19T07:58:37.466Z,55.02
2016-03-19T07:59:37.469Z,54.38
2016-03-19T08:00:37.456Z,54.19
2016-03-19T08:01:37.459Z,53.81
2016-03-19T08:02:37.477Z,53.14
2016-03-19T08:03:37.479Z,53.12
2016-03-19T08:04:37.483Z,53.91
2016-03-19T08:05:37.485Z,53.91
2016-03-19T08:06:37.488Z,53.81
2016-03-19T08:07:37.490Z,53.24
2016-03-19T08:08:37.493Z,52.95
2016-03-19T08:09:37.511Z,53.05
2016-03-19T08:10:37.483Z,52.48
2016-03-19T08:11:37.501Z,52.57
2016-03-19T08:12:37.989Z,52.67
2016-03-19T08:13:37.523Z,52.86
2016-03-19T08:14:37.495Z,53.05
2016-03-19T08:15:37.512Z,52.67
2016-03-19T08:16:37.531Z,52
2016-03-19T08:17:37.517Z,52.09
2016-03-19T08:18:37.536Z,51.81
2016-03-19T08:19:37.523Z,52
2016-03-19T08:20:37.542Z,52.16
2016-03-19T08:21:37.528Z,51.88
2016-03-19T08:22:37.531Z,51.78
2016-03-19T08:23:37.534Z,51.97
2016-03-19T08:24:37.521Z,51.68
2016-03-19T08:25:37.524Z,51.68
2016-03-19T08:26:37.527Z,52.07
2016-03-19T08:27:37.530Z,51.88
2016-03-19T08:28:37.532Z,51.97
2016-03-19T08:29:37.534Z,52.16
2016-03-19T08:30:37.537Z,52.16
2016-03-19T08:31:37.555Z,51.59
2016-03-19T08:32:37.511Z,51.68
2016-03-19T08:33:37.530Z,51.62
2016-03-19T08:34:37.517Z,51.43
2016-03-19T08:35:37.519Z,51.33
2016-03-19T08:36:37.521Z,50.95
2016-03-19T08:37:37.540Z,50.47
2016-03-19T08:38:37.527Z,50.28
2016-03-19T08:39:37.529Z,50.09
2016-03-19T08:40:51.720Z,49.62
2016-03-19T08:41:38.473Z,50.09
2016-03-19T08:42:37.523Z,49.62
2016-03-19T08:43:37.540Z,49.04
2016-03-19T08:45:37.515Z,49.13
2016-03-19T08:46:37.767Z,49.04
2016-03-19T08:47:37.536Z,48.85
2016-03-19T08:48:37.631Z,48.75
2016-03-19T08:49:37.526Z,48.28
2016-03-19T08:50:37.700Z,48.18
2016-03-19T08:51:37.530Z,47.99
2016-03-19T08:52:37.518Z,47.8
2016-03-19T08:53:37.614Z,47.52
2016-03-19T08:54:38.070Z,47.54
2016-03-19T08:55:37.510Z,47.25
2016-03-19T08:56:38.842Z,47.16
2016-03-19T08:57:37.516Z,46.87
2016-03-19T08:58:37.518Z,46.51
2016-03-19T08:59:37.506Z,45.94
2016-03-19T09:00:37.727Z,46.42
2016-03-19T09:01:37.511Z,46.03
2016-03-19T09:02:37.498Z,45.67
2016-03-19T09:03:37.501Z,45.29
2016-03-19T09:04:37.504Z,44.91
2016-03-19T09:05:37.506Z,44.81
2016-03-19T09:06:37.510Z,44.91
2016-03-19T09:07:37.496Z,44.62
2016-03-19T09:08:37.515Z,44.43
2016-03-19T09:09:37.501Z,44.31
2016-03-19T09:10:37.520Z,44.31
2016-03-19T09:11:37.506Z,44.31
2016-03-19T09:12:37.525Z,44.41
2016-03-19T09:13:37.511Z,44.29
2016-03-19T09:14:37.515Z,44.48
2016-03-19T09:15:37.517Z,44.67
2016-03-19T09:16:37.520Z,44.77
2016-03-19T09:17:37.523Z,44.77
2016-03-19T09:18:37.525Z,44.87
2016-03-19T09:19:37.497Z,44.77
2016-03-19T09:20:37.514Z,44.77
2016-03-19T09:21:37.487Z,44.77
2016-03-19T09:22:37.505Z,44.77
2016-03-19T09:23:37.492Z,44.77
2016-03-19T09:24:37.510Z,44.77
2016-03-19T09:25:37.513Z,44.77
2016-03-19T09:26:37.516Z,44.94
2016-03-19T09:27:37.502Z,44.96
2016-03-19T09:28:37.552Z,45.03
2016-03-19T09:29:37.508Z,44.94
2016-03-19T09:30:37.667Z,45.42
2016-03-19T09:31:37.497Z,45.22
2016-03-19T09:32:37.500Z,45.7
2016-03-19T09:33:37.488Z,45.22
2016-03-19T09:34:37.490Z,45.22
2016-03-19T09:35:37.493Z,45.42
2016-03-19T09:36:37.496Z,45.06
2016-03-19T09:37:37.483Z,45.34
2016-03-19T09:38:37.485Z,44.87
2016-03-19T09:39:37.473Z,45.06
2016-03-19T09:40:37.507Z,44.67
2016-03-19T09:41:37.478Z,44.67
2016-03-19T09:42:37.496Z,44.48
2016-03-19T09:43:37.499Z,44.02
2016-03-19T09:44:37.486Z,43.55
2016-03-19T09:45:37.473Z,43.07
2016-03-19T09:46:37.475Z,43.07
2016-03-19T09:47:37.479Z,43.07
2016-03-19T09:48:37.481Z,42.88
2016-03-19T09:49:37.484Z,42.31
2016-03-19T09:50:37.471Z,42.21
2016-03-19T09:51:37.473Z,42
2016-03-19T09:52:37.476Z,41.91
2016-03-19T09:53:37.478Z,41.41
2016-03-19T09:54:37.466Z,41.41
2016-03-19T09:55:37.484Z,41.98
2016-03-19T09:56:37.471Z,41.98
2016-03-19T09:57:37.474Z,42.15
2016-03-19T09:58:37.461Z,41.86
2016-03-19T09:59:37.448Z,42.15
2016-03-19T10:00:37.811Z,42.34
2016-03-19T10:01:37.469Z,42.24
2016-03-19T10:02:37.456Z,42.08
2016-03-19T10:03:39.052Z,41.88
2016-03-19T10:04:37.571Z,41.88
2016-03-19T10:05:37.464Z,41.6
2016-03-19T10:06:37.467Z,41.5
2016-03-19T10:07:37.469Z,41.5
2016-03-19T10:08:37.457Z,41.62
2016-03-19T10:09:37.599Z,41.43
2016-03-19T10:10:37.462Z,41.33
2016-03-19T10:11:37.449Z,41.33
2016-03-19T10:12:37.452Z,41.14
2016-03-19T10:13:38.268Z,41.24
2016-03-19T10:14:37.631Z,41.06
2016-03-19T10:15:37.430Z,41.06
2016-03-19T10:16:37.402Z,41.26
2016-03-19T10:17:37.404Z,40.88
2016-03-19T10:18:37.375Z,40.88
2016-03-19T10:19:37.715Z,40.69
2016-03-19T10:20:37.369Z,40.89
2016-03-19T10:21:37.351Z,40.8
2016-03-19T10:22:37.348Z,40.42
2016-03-19T10:23:37.345Z,40.61
2016-03-19T10:24:37.329Z,39.96
2016-03-19T10:25:37.346Z,39.86
2016-03-19T10:26:37.331Z,39.96
2016-03-19T10:27:37.332Z,39.67
2016-03-19T10:28:37.333Z,38.71
2016-03-19T10:29:37.319Z,38.43
2016-03-19T10:30:37.321Z,37.38
2016-03-19T10:31:37.323Z,37.46
2016-03-19T10:32:37.325Z,37.07
2016-03-19T10:33:37.327Z,37.15
2016-03-19T10:34:37.330Z,37.99
2016-03-19T10:35:37.332Z,38.28
2016-03-19T10:36:37.318Z,38.76
2016-03-19T10:37:37.304Z,39.04
2016-03-19T10:38:37.323Z,38.95
2016-03-19T10:39:37.356Z,38.66
2016-03-19T10:40:37.344Z,38.58
2016-03-19T10:41:37.314Z,38.68
2016-03-19T10:42:37.317Z,38.3
2016-03-19T10:43:37.320Z,38.39
2016-03-19T10:44:37.323Z,38.2
2016-03-19T10:45:37.326Z,38.39
2016-03-19T10:46:37.344Z,38.32
2016-03-19T10:47:37.331Z,38.12
2016-03-19T10:48:37.318Z,38.41
2016-03-19T10:49:37.305Z,37.93
2016-03-19T10:50:37.324Z,37.76
2016-03-19T10:51:37.310Z,37.66
2016-03-19T10:52:37.313Z,37.28
2016-03-19T10:53:37.316Z,36.98
2016-03-19T10:54:37.335Z,37.17
2016-03-19T10:55:37.322Z,37.36
2016-03-19T10:56:37.324Z,37.55
2016-03-19T10:57:37.327Z,37.65
2016-03-19T10:58:37.329Z,37.74
2016-03-19T10:59:37.332Z,38.03
2016-03-19T11:00:37.320Z,37.84
2016-03-19T11:01:37.322Z,37.36
2016-03-19T11:02:37.325Z,37.84
2016-03-19T11:03:37.328Z,37.76
2016-03-19T11:04:37.330Z,37.85
2016-03-19T11:05:37.333Z,37.57
2016-03-19T11:06:37.320Z,37.66
2016-03-19T11:07:37.322Z,37.57
2016-03-19T11:08:37.309Z,37.57
2016-03-19T11:09:37.328Z,37.38
2016-03-19T11:10:37.331Z,37.21
2016-03-19T11:11:37.333Z,37.21
2016-03-19T11:12:37.336Z,37.02
2016-03-19T11:13:37.308Z,36.82
2016-03-19T11:14:37.325Z,36.63
2016-03-19T11:15:37.328Z,36.54
2016-03-19T11:16:37.331Z,36.82
2016-03-19T11:17:37.318Z,36.82
2016-03-19T11:19:37.323Z,36.63
2016-03-19T11:20:37.780Z,36.63
2016-03-19T11:21:37.891Z,36.46
2016-03-19T11:22:37.535Z,36.27
2016-03-19T11:23:38.412Z,35.6
2016-03-19T11:24:38.665Z,36.27
2016-03-19T11:25:37.324Z,35.31
2016-03-19T11:26:38.201Z,35.41
2016-03-19T11:27:37.627Z,35.42
2016-03-19T11:28:37.957Z,35.52
2016-03-19T11:29:37.835Z,34.85
2016-03-19T11:30:37.400Z,34.37
2016-03-19T11:31:37.324Z,34.66
2016-03-19T11:33:38.783Z,34.75
2016-03-19T11:34:37.707Z,34.64
2016-03-19T11:35:38.382Z,34.18
2016-03-19T11:36:37.338Z,34.28
2016-03-19T11:37:37.341Z,34.47
2016-03-19T11:38:37.609Z,34.47
2016-03-19T11:39:37.346Z,34.28
2016-03-19T11:40:37.333Z,33.8
2016-03-19T11:41:37.351Z,33.81
2016-03-19T11:42:37.338Z,33.91
2016-03-19T11:43:37.356Z,33.53
2016-03-19T11:44:37.358Z,33.62
2016-03-19T11:45:37.361Z,33.43
2016-03-19T11:46:37.365Z,33.43
2016-03-19T11:47:37.367Z,33.04
2016-03-19T11:48:37.355Z,32.76
2016-03-19T11:49:37.358Z,32.86
2016-03-19T11:50:37.360Z,32.84
2016-03-19T11:51:37.377Z,33.03
2016-03-19T11:52:37.366Z,32.93
2016-03-19T11:53:37.383Z,33.51
2016-03-19T11:54:37.371Z,33.8
2016-03-19T11:55:37.373Z,33.78
2016-03-19T11:56:37.391Z,33.87
2016-03-19T11:57:37.426Z,34.16
2016-03-19T11:58:37.381Z,34.43
2016-03-19T11:59:37.384Z,34.24
2016-03-19T12:00:37.371Z,34.72
2016-03-19T12:01:37.389Z,34.81
2016-03-19T12:02:37.408Z,35.18
2016-03-19T12:03:37.379Z,34.99
2016-03-19T12:04:37.382Z,35.28
2016-03-19T12:05:37.384Z,35.37
2016-03-19T12:06:37.403Z,35.28
2016-03-19T12:07:37.390Z,35.74
2016-03-19T12:08:37.392Z,36.21
2016-03-19T12:09:37.395Z,36.31
2016-03-19T12:10:37.398Z,36.96
2016-03-19T12:11:37.386Z,36.68
2016-03-19T12:12:37.389Z,36.48
2016-03-19T12:13:37.391Z,36.77
2016-03-19T12:14:37.394Z,37.05
2016-03-19T12:15:37.380Z,36.77
2016-03-19T12:16:37.383Z,36.87
2016-03-19T12:17:37.385Z,37.05
2016-03-19T12:18:37.389Z,36.77
2016-03-19T12:19:37.375Z,36.96
2016-03-19T12:20:37.394Z,37.34
2016-03-19T12:21:37.380Z,37.15
2016-03-19T12:22:37.399Z,37.15
2016-03-19T12:23:37.386Z,37.44
2016-03-19T12:24:37.389Z,37.53
2016-03-19T12:25:37.391Z,37.63
2016-03-19T12:26:37.378Z,37.63
2016-03-19T12:27:37.382Z,37.53
2016-03-19T12:28:37.399Z,37.92
2016-03-19T12:29:37.387Z,37.73
2016-03-19T12:30:37.374Z,37.63
2016-03-19T12:31:37.392Z,37.63
2016-03-19T12:32:37.410Z,37.73
2016-03-19T12:33:37.381Z,37.82
2016-03-19T12:34:37.401Z,37.92
2016-03-19T12:35:37.387Z,37.82
2016-03-19T12:36:37.389Z,37.63
2016-03-19T12:38:37.395Z,37.44
2016-03-19T12:41:52.606Z,36.88
2016-03-19T12:42:38.140Z,36.61
2016-03-19T12:43:38.736Z,35.66
2016-03-19T12:44:38.521Z,35.85
2016-03-19T12:45:37.961Z,35.57
2016-03-19T12:46:37.369Z,35.47
2016-03-19T12:47:51.561Z,34.7
2016-03-19T12:48:51.563Z,34.34
2016-03-19T12:49:38.144Z,34.05
2016-03-19T12:50:37.381Z,32.81
2016-03-19T12:52:38.823Z,32.73
2016-03-19T12:53:37.686Z,32.54
2016-03-19T12:54:38.391Z,32.34
2016-03-19T12:55:37.379Z,31.77
2016-03-19T12:56:37.381Z,31.77
2016-03-19T12:57:37.555Z,31.67
2016-03-19T12:58:37.402Z,31.96
2016-03-19T12:59:37.389Z,31.77
2016-03-19T13:00:37.393Z,31.96
2016-03-19T13:01:37.379Z,31.85
2016-03-19T13:02:37.382Z,31.66
2016-03-19T13:03:37.384Z,31.85
2016-03-19T13:04:37.371Z,32.04
2016-03-19T13:05:37.406Z,32.14
2016-03-19T13:06:37.376Z,32.33
2016-03-19T13:07:37.379Z,32.21
2016-03-19T13:08:37.382Z,32.21